Time;durP1;ratioP1;P1;durP2;ratioP2;P2;SDS_P1;SDS_P2;PMS_P1;PMS_P2;Temp;Humidity;BMP_temperature;BMP_pressure;BME280_temperature;BME280_humidity;BME280_pressure;Samples;Min_cycle;Max_cycle;Signal;HPM_P1;HPM_P2
2022/03/06 00:01:27;;;;;;;51.67;20.38;;;4.00;71.00;;;;;;5094253;28;20418;-89
2022/03/06 00:03:53;;;;;;;46.10;22.10;;;4.00;71.10;;;;;;5094124;28;20248;-89
2022/03/06 00:06:19;;;;;;;54.13;21.73;;;3.90;71.30;;;;;;5095862;28;20172;-89
2022/03/06 00:08:45;;;;;;;49.25;22.33;;;4.00;71.30;;;;;;5104652;28;20200;-89
2022/03/06 00:11:11;;;;;;;49.07;21.60;;;4.10;71.10;;;;;;5098759;28;20717;-88
2022/03/06 00:13:37;;;;;;;52.33;22.67;;;4.10;70.80;;;;;;5096501;28;20496;-89
2022/03/06 00:16:03;;;;;;;52.40;20.63;;;4.00;70.80;;;;;;5094695;28;20448;-89
2022/03/06 00:18:29;;;;;;;58.60;22.83;;;4.00;70.80;;;;;;5095345;28;20180;-89
2022/03/06 00:20:55;;;;;;;49.77;19.57;;;4.10;70.80;;;;;;5098029;28;20187;-89
2022/03/06 00:23:22;;;;;;;45.92;19.10;;;4.10;70.80;;;;;;5100183;28;20278;-89
2022/03/06 00:25:49;;;;;;;58.95;23.02;;;4.10;70.50;;;;;;5098491;28;20187;-89
2022/03/06 00:28:15;;;;;;;44.30;19.73;;;3.90;70.60;;;;;;5094873;28;20182;-89
2022/03/06 00:30:42;;;;;;;47.73;22.37;;;4.00;70.60;;;;;;5093982;28;20176;-88
2022/03/06 00:33:08;;;;;;;47.95;19.45;;;4.00;70.30;;;;;;5093511;28;20229;-89
2022/03/06 00:35:34;;;;;;;50.57;21.37;;;4.10;70.20;;;;;;5097529;28;20249;-89
2022/03/06 00:38:00;;;;;;;48.90;20.88;;;4.10;70.10;;;;;;5100790;28;20418;-88
2022/03/06 00:43:48;;;;;;;42.28;19.60;;;4.00;69.90;;;;;;5108080;28;20271;-88
2022/03/06 00:46:14;;;;;;;49.90;21.52;;;3.90;69.80;;;;;;5098917;28;20207;-89
2022/03/06 00:48:40;;;;;;;51.53;21.30;;;3.90;69.70;;;;;;5097665;28;20191;-89
2022/03/06 00:51:06;;;;;;;42.47;19.83;;;3.80;69.60;;;;;;5097157;28;20421;-89
2022/03/06 00:53:32;;;;;;;43.80;20.55;;;3.80;69.70;;;;;;5098832;28;20536;-89
2022/03/06 00:55:57;;;;;;;48.93;21.00;;;3.90;69.70;;;;;;5097387;28;20214;-89
2022/03/06 00:58:23;;;;;;;50.63;20.10;;;3.80;69.70;;;;;;5097620;28;20184;-88
2022/03/06 01:00:49;;;;;;;60.13;22.80;;;3.80;69.40;;;;;;5097905;28;20652;-89
2022/03/06 01:03:17;;;;;;;43.90;21.05;;;3.70;69.30;;;;;;5099046;28;20636;-89
2022/03/06 01:05:44;;;;;;;44.40;22.75;;;3.80;69.30;;;;;;5107972;28;20184;-87
2022/03/06 01:08:10;;;;;;;50.40;21.20;;;3.80;69.30;;;;;;5114113;28;20195;-89
2022/03/06 01:10:38;;;;;;;39.40;19.13;;;3.80;69.40;;;;;;5098862;28;20180;-89
2022/03/06 01:13:05;;;;;;;52.08;21.58;;;3.80;69.30;;;;;;5081319;28;20179;-90
2022/03/06 01:15:31;;;;;;;41.60;18.38;;;3.80;69.10;;;;;;5098941;28;20267;-88
2022/03/06 01:17:57;;;;;;;47.08;20.42;;;3.60;69.20;;;;;;5106249;28;20212;-86
2022/03/06 01:20:24;;;;;;;52.53;20.67;;;3.80;69.30;;;;;;5118217;28;20207;-87
2022/03/06 01:22:50;;;;;;;49.85;21.60;;;3.70;69.20;;;;;;5100683;28;20437;-88
2022/03/06 01:25:17;;;;;;;52.78;20.67;;;3.50;69.50;;;;;;5099091;28;20200;-88
2022/03/06 01:27:43;;;;;;;45.90;20.63;;;3.70;70.20;;;;;;5100971;28;20179;-86
2022/03/06 01:30:11;;;;;;;45.83;22.30;;;3.50;69.50;;;;;;5109143;28;20180;-86
2022/03/06 01:32:38;;;;;;;41.90;18.67;;;3.70;69.40;;;;;;5113155;28;20434;-85
2022/03/06 01:35:05;;;;;;;46.88;19.88;;;3.70;69.20;;;;;;5113880;28;20208;-87
2022/03/06 01:37:31;;;;;;;47.97;20.50;;;3.70;69.20;;;;;;5113043;28;20183;-86
2022/03/06 01:39:58;;;;;;;54.60;20.00;;;3.60;68.90;;;;;;5113597;28;20223;-87
2022/03/06 01:42:25;;;;;;;41.88;20.25;;;3.60;69.00;;;;;;5113854;28;20176;-87
2022/03/06 01:44:51;;;;;;;49.78;20.42;;;3.60;69.00;;;;;;5114304;28;20212;-87
2022/03/06 01:47:32;;;;;;;41.17;19.05;;;3.60;68.90;;;;;;5110224;28;20207;-90
2022/03/06 01:49:58;;;;;;;43.55;18.63;;;3.60;68.90;;;;;;5101770;28;20176;-85
2022/03/06 01:52:23;;;;;;;43.93;19.90;;;3.50;68.90;;;;;;5098718;28;20318;-88
2022/03/06 01:54:49;;;;;;;43.63;19.97;;;3.40;68.80;;;;;;5096170;28;20195;-88
2022/03/06 01:57:15;;;;;;;49.00;19.10;;;3.30;69.10;;;;;;5097630;28;20175;-88
2022/03/06 01:59:41;;;;;;;47.10;21.10;;;3.30;69.40;;;;;;5105047;28;20295;-87
2022/03/06 02:02:07;;;;;;;40.87;19.63;;;3.30;70.20;;;;;;5113737;28;20437;-86
2022/03/06 02:04:33;;;;;;;57.80;19.08;;;3.30;69.40;;;;;;5111837;28;20446;-87
2022/03/06 02:06:59;;;;;;;48.60;18.70;;;3.50;69.30;;;;;;5105378;28;20233;-87
2022/03/06 02:09:26;;;;;;;44.30;20.00;;;3.40;68.90;;;;;;5104719;28;20184;-88
2022/03/06 02:14:36;;;;;;;46.75;18.25;;;3.30;69.00;;;;;;5100544;28;20257;-86
2022/03/06 02:17:02;;;;;;;49.87;18.57;;;3.20;69.20;;;;;;5098527;28;20172;-88
2022/03/06 02:19:28;;;;;;;44.45;18.27;;;3.20;69.30;;;;;;5097605;28;20191;-88
2022/03/06 02:21:54;;;;;;;43.53;21.07;;;3.10;69.40;;;;;;5096516;28;20218;-88
2022/03/06 02:24:20;;;;;;;45.87;19.70;;;3.00;69.50;;;;;;5096358;28;20184;-88
2022/03/06 02:26:45;;;;;;;39.13;17.47;;;3.10;69.60;;;;;;5096288;28;20242;-88
2022/03/06 02:29:12;;;;;;;35.00;17.33;;;3.10;69.60;;;;;;5097382;28;20998;-88
2022/03/06 02:31:39;;;;;;;46.53;19.25;;;3.10;69.50;;;;;;5096419;28;20194;-88
2022/03/06 02:34:06;;;;;;;32.92;16.52;;;3.10;69.40;;;;;;5095380;28;20203;-88
2022/03/06 02:36:31;;;;;;;41.42;18.67;;;3.10;69.40;;;;;;5095865;28;20176;-88
2022/03/06 02:38:57;;;;;;;38.73;18.43;;;3.10;69.20;;;;;;5095517;28;20222;-88
2022/03/06 02:41:23;;;;;;;39.80;18.80;;;3.00;69.20;;;;;;5096345;28;20440;-88
2022/03/06 02:43:48;;;;;;;43.10;18.60;;;2.90;69.30;;;;;;5114048;28;20216;-86
2022/03/06 02:46:14;;;;;;;46.53;19.10;;;2.90;69.30;;;;;;5114017;28;20180;-87
2022/03/06 02:48:40;;;;;;;45.53;19.90;;;3.00;69.20;;;;;;5096398;28;20194;-88
2022/03/06 02:51:06;;;;;;;38.60;17.83;;;3.10;69.00;;;;;;5095488;28;20183;-88
2022/03/06 02:53:31;;;;;;;41.63;15.93;;;3.00;68.80;;;;;;5094427;28;20206;-87
2022/03/06 02:55:58;;;;;;;40.37;17.17;;;2.90;69.00;;;;;;5095337;28;20425;-88
2022/03/06 02:58:24;;;;;;;43.88;17.40;;;2.70;70.20;;;;;;5077834;28;20215;-87
2022/03/06 03:00:50;;;;;;;48.00;19.70;;;2.70;69.50;;;;;;5117918;28;20194;-85
2022/03/06 03:03:16;;;;;;;41.05;18.35;;;2.80;69.60;;;;;;5098015;28;20180;-86
2022/03/06 03:05:42;;;;;;;40.90;17.50;;;2.80;69.50;;;;;;5095673;28;20564;-88
2022/03/06 03:08:08;;;;;;;36.23;16.80;;;2.80;69.40;;;;;;5095302;28;20210;-87
2022/03/06 03:10:34;;;;;;;40.50;19.13;;;2.70;69.70;;;;;;5095861;28;20413;-88
2022/03/06 03:13:00;;;;;;;37.78;17.55;;;2.70;69.90;;;;;;5109867;28;20168;-85
2022/03/06 03:15:26;;;;;;;39.97;19.47;;;2.70;70.00;;;;;;5114672;28;20570;-87
2022/03/06 03:17:52;;;;;;;40.27;18.20;;;2.70;70.00;;;;;;5095730;28;20422;-87
2022/03/06 03:20:18;;;;;;;40.87;18.63;;;2.70;70.00;;;;;;5096955;28;20204;-87
2022/03/06 03:22:44;;;;;;;39.60;17.10;;;2.70;70.10;;;;;;5095927;28;20446;-88
2022/03/06 03:25:11;;;;;;;35.75;16.80;;;2.80;70.00;;;;;;5095706;28;20207;-88
2022/03/06 03:27:38;;;;;;;44.30;17.02;;;2.70;70.00;;;;;;5095560;28;20575;-88
2022/03/06 03:30:09;;;;;;;39.60;16.60;;;2.50;70.10;;;;;;5096642;28;20549;-87
2022/03/06 03:32:35;;;;;;;33.85;17.00;;;2.50;70.50;;;;;;5095431;28;20180;-87
2022/03/06 03:35:01;;;;;;;35.43;16.80;;;2.60;70.40;;;;;;5100100;28;20552;-88
2022/03/06 03:37:27;;;;;;;37.50;17.73;;;2.50;70.50;;;;;;5101189;28;20418;-88
2022/03/06 03:39:53;;;;;;;37.35;16.65;;;2.70;70.20;;;;;;5099960;28;20199;-86
2022/03/06 03:42:19;;;;;;;34.93;16.53;;;2.50;70.10;;;;;;5102417;28;20168;-88
2022/03/06 03:44:44;;;;;;;46.47;19.33;;;2.50;70.50;;;;;;5101915;28;20336;-88
2022/03/06 03:47:10;;;;;;;40.40;16.90;;;2.40;70.70;;;;;;5097744;28;20179;-88
2022/03/06 03:49:36;;;;;;;46.33;18.20;;;2.60;70.60;;;;;;5095446;28;20180;-88
2022/03/06 03:52:02;;;;;;;44.57;17.07;;;2.60;70.40;;;;;;5097688;28;20448;-88
2022/03/06 03:54:28;;;;;;;39.42;16.67;;;2.50;70.50;;;;;;5099602;28;20369;-88
2022/03/06 03:56:53;;;;;;;41.70;16.63;;;2.50;70.60;;;;;;5100643;28;20206;-88
2022/03/06 03:59:19;;;;;;;41.13;17.37;;;2.50;70.60;;;;;;5097726;28;20192;-85
2022/03/06 04:01:45;;;;;;;46.07;19.40;;;2.40;70.70;;;;;;5107459;28;20191;-87
2022/03/06 04:04:10;;;;;;;50.10;20.00;;;2.50;70.60;;;;;;5106551;28;20200;-88
2022/03/06 04:06:36;;;;;;;38.73;18.73;;;2.40;70.50;;;;;;5104923;28;20430;-85
2022/03/06 04:09:03;;;;;;;46.43;16.90;;;2.50;70.70;;;;;;5102750;28;20467;-86
2022/03/06 04:11:28;;;;;;;40.05;16.88;;;2.50;70.60;;;;;;5104720;28;20243;-87
2022/03/06 04:13:54;;;;;;;37.53;16.33;;;2.50;70.80;;;;;;5102706;28;20195;-88
2022/03/06 04:16:20;;;;;;;36.40;18.07;;;2.40;70.70;;;;;;5095055;28;20195;-88
2022/03/06 04:18:46;;;;;;;38.83;17.35;;;2.40;70.80;;;;;;5096188;28;20346;-88
2022/03/06 04:21:12;;;;;;;36.43;17.80;;;2.30;71.10;;;;;;5094431;28;20180;-88
2022/03/06 04:23:38;;;;;;;35.53;17.03;;;2.30;71.20;;;;;;5093778;28;20499;-88
2022/03/06 04:26:04;;;;;;;43.00;17.60;;;2.40;71.10;;;;;;5096131;28;20436;-87
2022/03/06 04:28:31;;;;;;;39.83;17.67;;;2.30;71.30;;;;;;5104055;28;20429;-85
2022/03/06 04:30:57;;;;;;;36.55;17.33;;;2.20;71.40;;;;;;5112200;28;20259;-87
2022/03/06 04:33:23;;;;;;;37.33;16.70;;;2.30;71.70;;;;;;5111638;28;20179;-85
2022/03/06 04:35:49;;;;;;;38.93;16.37;;;2.20;71.60;;;;;;5113013;28;20175;-87
2022/03/06 04:38:14;;;;;;;41.57;17.33;;;2.20;71.70;;;;;;5112839;28;20934;-86
2022/03/06 04:40:40;;;;;;;43.67;17.40;;;2.20;71.70;;;;;;5112506;28;20237;-86
2022/03/06 04:43:06;;;;;;;45.77;17.33;;;2.20;72.00;;;;;;5111820;28;20174;-87
2022/03/06 04:45:31;;;;;;;40.00;17.23;;;2.00;72.10;;;;;;5109606;28;20459;-88
2022/03/06 04:47:57;;;;;;;38.77;16.47;;;2.10;73.10;;;;;;5097895;28;20184;-88
2022/03/06 04:50:23;;;;;;;27.10;15.30;;;2.10;72.30;;;;;;5095826;28;20180;-87
2022/03/06 04:52:48;;;;;;;40.53;16.50;;;2.00;73.40;;;;;;5101290;28;20433;-85
2022/03/06 04:55:14;;;;;;;33.40;15.70;;;1.90;72.70;;;;;;5115655;28;20191;-88
2022/03/06 04:57:41;;;;;;;35.87;15.60;;;1.90;72.80;;;;;;5094393;28;20206;-87
2022/03/06 05:00:07;;;;;;;42.17;15.88;;;1.90;73.10;;;;;;5094296;28;20206;-88
2022/03/06 05:02:33;;;;;;;39.25;17.10;;;1.90;72.90;;;;;;5097029;28;20191;-87
2022/03/06 05:04:58;;;;;;;31.57;15.10;;;1.80;73.00;;;;;;5101702;28;20214;-87
2022/03/06 05:07:24;;;;;;;33.13;16.73;;;1.90;73.20;;;;;;5114707;28;20172;-85
2022/03/06 05:09:50;;;;;;;37.43;16.73;;;2.00;73.00;;;;;;5116274;28;20225;-88
2022/03/06 05:12:16;;;;;;;35.00;15.10;;;2.00;72.70;;;;;;5113380;28;20176;-87
2022/03/06 05:14:41;;;;;;;32.13;15.40;;;1.90;72.80;;;;;;5104685;28;20450;-87
2022/03/06 05:17:07;;;;;;;31.40;14.47;;;1.80;72.90;;;;;;5105741;28;20176;-88
2022/03/06 05:19:33;;;;;;;34.90;15.70;;;1.90;72.90;;;;;;5073938;28;20197;-88
2022/03/06 05:21:58;;;;;;;32.43;16.27;;;1.70;73.10;;;;;;5095046;28;20704;-88
2022/03/06 05:24:24;;;;;;;34.53;14.73;;;1.70;73.20;;;;;;5094156;28;20249;-87
2022/03/06 05:26:52;;;;;;;35.72;16.02;;;1.60;73.30;;;;;;5094342;28;20187;-87
2022/03/06 05:29:18;;;;;;;36.65;16.35;;;1.70;73.40;;;;;;5094891;28;20183;-87
2022/03/06 05:31:44;;;;;;;30.13;14.30;;;1.70;73.40;;;;;;5077483;28;20181;-88
2022/03/06 05:34:10;;;;;;;40.60;17.73;;;1.60;73.40;;;;;;5096582;28;20480;-87
2022/03/06 05:36:35;;;;;;;35.07;14.70;;;1.60;73.50;;;;;;5097896;28;20418;-88
2022/03/06 05:39:01;;;;;;;34.30;15.02;;;1.60;73.40;;;;;;5098035;28;20238;-88
2022/03/06 05:41:27;;;;;;;37.23;14.80;;;1.60;73.50;;;;;;5097735;28;20180;-87
2022/03/06 05:43:53;;;;;;;30.50;14.60;;;1.70;73.40;;;;;;5108587;28;20485;-87
2022/03/06 05:46:18;;;;;;;34.70;15.93;;;1.70;73.30;;;;;;5106870;28;20422;-88
2022/03/06 05:48:44;;;;;;;32.40;13.47;;;1.70;73.10;;;;;;5097065;28;20183;-87
2022/03/06 05:51:11;;;;;;;34.17;15.63;;;1.80;73.00;;;;;;5097118;28;20267;-88
2022/03/06 05:53:36;;;;;;;31.60;16.83;;;1.80;72.70;;;;;;5097668;28;20204;-88
2022/03/06 05:56:02;;;;;;;42.03;15.37;;;1.80;72.50;;;;;;5097072;28;20214;-87
2022/03/06 05:58:28;;;;;;;33.77;15.60;;;1.70;72.60;;;;;;5099227;28;20437;-88
2022/03/06 06:00:54;;;;;;;35.73;13.87;;;1.70;72.70;;;;;;5100462;28;20934;-88
2022/03/06 06:03:19;;;;;;;31.37;15.80;;;1.70;72.80;;;;;;5100984;28;20410;-87
2022/03/06 06:05:45;;;;;;;31.57;14.87;;;1.60;72.80;;;;;;5096503;28;20178;-87
2022/03/06 06:08:11;;;;;;;36.40;17.07;;;1.60;73.10;;;;;;5097463;28;20168;-86
2022/03/06 06:10:37;;;;;;;35.67;17.10;;;1.50;73.30;;;;;;5096751;28;20225;-88
2022/03/06 06:13:03;;;;;;;37.75;14.95;;;1.60;73.40;;;;;;5098819;28;20237;-88
2022/03/06 06:15:29;;;;;;;28.87;14.30;;;1.70;73.20;;;;;;5096880;28;20215;-88
2022/03/06 06:17:54;;;;;;;28.10;15.27;;;1.70;73.10;;;;;;5096900;28;20271;-88
2022/03/06 06:20:22;;;;;;;35.63;15.70;;;1.70;72.90;;;;;;5098390;28;20523;-89
2022/03/06 06:22:48;;;;;;;28.23;14.15;;;1.70;72.80;;;;;;5096346;28;20218;-89
2022/03/06 06:25:14;;;;;;;34.50;14.60;;;1.80;72.50;;;;;;5096317;28;20209;-89
2022/03/06 06:27:39;;;;;;;27.40;14.77;;;1.70;72.50;;;;;;5096173;28;20429;-87
2022/03/06 06:30:06;;;;;;;34.80;16.27;;;1.60;72.30;;;;;;5098426;28;20453;-87
2022/03/06 06:32:31;;;;;;;30.25;15.55;;;1.70;72.50;;;;;;5096582;28;20426;-88
2022/03/06 06:34:57;;;;;;;32.60;13.83;;;1.70;72.50;;;;;;5100928;28;20210;-88
2022/03/06 06:37:23;;;;;;;31.30;15.37;;;1.60;72.40;;;;;;5084513;28;20187;-88
2022/03/06 06:39:51;;;;;;;29.77;14.97;;;1.60;72.50;;;;;;5104400;28;20458;-88
2022/03/06 06:42:16;;;;;;;29.13;14.27;;;1.50;72.80;;;;;;5104140;28;20172;-87
2022/03/06 06:44:42;;;;;;;27.43;14.23;;;1.60;72.80;;;;;;5101723;28;20202;-87
2022/03/06 06:47:08;;;;;;;34.13;15.67;;;1.30;73.40;;;;;;5103599;28;20417;-85
2022/03/06 06:49:34;;;;;;;31.63;15.43;;;1.30;73.80;;;;;;5114183;28;20187;-87
2022/03/06 06:52:00;;;;;;;29.65;15.43;;;1.30;74.10;;;;;;5098046;28;20429;-89
2022/03/06 06:54:26;;;;;;;40.30;16.30;;;1.40;74.10;;;;;;5096316;28;20196;-88
2022/03/06 06:56:51;;;;;;;30.53;15.30;;;1.60;73.60;;;;;;5098259;28;20172;-89
2022/03/06 06:59:17;;;;;;;29.37;15.30;;;1.50;73.40;;;;;;5097020;28;20192;-88
2022/03/06 07:01:43;;;;;;;34.10;16.33;;;1.50;73.50;;;;;;5112683;28;20156;-88
2022/03/06 07:04:09;;;;;;;31.73;14.83;;;1.50;73.20;;;;;;5109127;28;20462;-88
2022/03/06 07:06:35;;;;;;;32.53;14.60;;;1.60;73.10;;;;;;5095866;28;20180;-88
2022/03/06 07:09:00;;;;;;;31.10;16.47;;;1.70;72.90;;;;;;5094968;28;20437;-88
2022/03/06 07:11:26;;;;;;;30.03;15.40;;;1.60;72.60;;;;;;5095485;28;20176;-88
2022/03/06 07:13:52;;;;;;;33.47;14.03;;;1.70;72.50;;;;;;5093871;28;20879;-89
2022/03/06 07:16:19;;;;;;;29.90;13.87;;;1.80;72.00;;;;;;5095648;28;20191;-88
2022/03/06 07:18:44;;;;;;;32.45;14.68;;;1.80;71.70;;;;;;5094986;28;20207;-88
2022/03/06 07:21:11;;;;;;;28.77;14.57;;;1.80;71.50;;;;;;5096674;28;20195;-88
2022/03/06 07:23:36;;;;;;;30.33;14.50;;;1.80;71.40;;;;;;5098779;28;20917;-88
2022/03/06 07:26:02;;;;;;;24.03;14.00;;;1.90;71.20;;;;;;5096037;28;20179;-89
2022/03/06 07:28:29;;;;;;;30.60;13.40;;;1.90;71.10;;;;;;5095431;28;20949;-90
2022/03/06 07:30:54;;;;;;;28.75;14.85;;;2.10;70.80;;;;;;5097154;28;20421;-89
2022/03/06 07:33:20;;;;;;;29.33;15.00;;;2.10;70.40;;;;;;5101019;28;20199;-87
2022/03/06 07:35:46;;;;;;;29.80;15.33;;;2.30;70.10;;;;;;5106859;28;20180;-88
2022/03/06 07:38:12;;;;;;;29.83;13.77;;;2.30;69.60;;;;;;5109839;28;20176;-89
2022/03/06 07:40:38;;;;;;;28.77;15.07;;;2.40;69.30;;;;;;5107672;28;20484;-88
2022/03/06 07:43:03;;;;;;;22.47;11.63;;;2.40;68.90;;;;;;5108333;28;20422;-88
2022/03/06 07:45:29;;;;;;;26.53;15.13;;;2.40;68.70;;;;;;5109283;28;20210;-88
2022/03/06 07:47:55;;;;;;;26.90;12.73;;;2.50;68.50;;;;;;5111896;28;20453;-89
2022/03/06 07:50:21;;;;;;;26.50;14.00;;;2.50;68.40;;;;;;5098065;28;20179;-89
2022/03/06 07:52:47;;;;;;;23.52;13.18;;;2.50;68.00;;;;;;5096061;28;20421;-89
2022/03/06 07:55:13;;;;;;;27.20;14.20;;;2.40;67.70;;;;;;5096400;28;20563;-88
2022/03/06 07:57:38;;;;;;;33.95;15.02;;;2.30;67.80;;;;;;5096769;28;20425;-89
2022/03/06 08:00:07;;;;;;;29.23;14.17;;;2.50;67.80;;;;;;5095142;28;20758;-89
2022/03/06 08:02:33;;;;;;;27.05;14.70;;;2.50;67.50;;;;;;5095869;28;20175;-89
2022/03/06 08:04:59;;;;;;;27.35;13.60;;;2.50;67.50;;;;;;5097597;28;20199;-88
2022/03/06 08:07:25;;;;;;;33.93;14.07;;;2.60;67.20;;;;;;5078945;28;20188;-89
2022/03/06 08:09:51;;;;;;;23.70;14.80;;;2.60;67.10;;;;;;5097439;28;20187;-89
2022/03/06 08:12:16;;;;;;;25.03;14.50;;;2.80;66.90;;;;;;5096596;28;20176;-89
2022/03/06 08:14:42;;;;;;;22.37;12.30;;;2.70;66.90;;;;;;5096390;28;20231;-89
2022/03/06 08:17:08;;;;;;;28.15;13.63;;;2.70;66.80;;;;;;5097735;28;20429;-89
2022/03/06 08:19:34;;;;;;;26.67;13.13;;;2.70;66.50;;;;;;5096464;28;20211;-89
2022/03/06 08:21:59;;;;;;;36.97;14.47;;;2.60;66.60;;;;;;5097741;28;20172;-89
2022/03/06 08:24:25;;;;;;;23.73;13.40;;;2.60;66.80;;;;;;5094283;28;20196;-90
2022/03/06 08:26:51;;;;;;;31.23;13.87;;;2.70;66.60;;;;;;5095562;28;20172;-90
2022/03/06 08:29:17;;;;;;;29.87;13.97;;;2.80;66.50;;;;;;5094593;28;20422;-90
2022/03/06 08:31:42;;;;;;;29.17;14.70;;;2.80;66.10;;;;;;5094171;28;20176;-90
2022/03/06 08:34:09;;;;;;;21.37;12.50;;;2.90;66.10;;;;;;5093980;28;20203;-89
2022/03/06 08:36:34;;;;;;;25.23;13.57;;;3.10;65.90;;;;;;5096714;28;20183;-90
2022/03/06 08:39:00;;;;;;;25.87;13.80;;;3.00;65.40;;;;;;5107128;28;20245;-87
2022/03/06 08:41:26;;;;;;;35.50;13.97;;;3.00;65.50;;;;;;5116850;28;20240;-87
2022/03/06 08:43:51;;;;;;;21.40;11.90;;;3.10;65.20;;;;;;5115250;28;20239;-87
2022/03/06 08:46:17;;;;;;;29.57;13.40;;;3.10;64.90;;;;;;5111769;28;20180;-85
2022/03/06 08:48:43;;;;;;;27.70;14.10;;;3.30;64.70;;;;;;5108480;28;20166;-86
2022/03/06 08:51:09;;;;;;;29.30;13.90;;;3.40;64.40;;;;;;5098497;28;20467;-87
2022/03/06 08:53:34;;;;;;;22.97;12.63;;;3.40;64.10;;;;;;5102232;28;20180;-86
2022/03/06 08:56:01;;;;;;;27.63;14.47;;;3.30;63.70;;;;;;5111828;28;20422;-87
2022/03/06 08:58:27;;;;;;;28.80;12.90;;;3.40;63.70;;;;;;5094916;28;20429;-87
2022/03/06 09:00:55;;;;;;;23.27;12.77;;;3.50;63.50;;;;;;5094759;28;20211;-88
2022/03/06 09:03:21;;;;;;;26.67;15.65;;;3.60;63.30;;;;;;5093447;28;20263;-87
2022/03/06 09:05:46;;;;;;;24.80;12.90;;;3.50;63.10;;;;;;5098867;28;20249;-87
2022/03/06 09:08:12;;;;;;;24.10;12.80;;;3.70;62.80;;;;;;5100461;28;20443;-88
2022/03/06 09:10:39;;;;;;;24.30;14.63;;;3.70;62.60;;;;;;5081753;28;20429;-87
2022/03/06 09:13:08;;;;;;;25.25;11.40;;;3.80;62.40;;;;;;5098018;28;20222;-88
2022/03/06 09:15:37;;;;;;;24.88;13.57;;;3.80;62.00;;;;;;5097121;28;20259;-86
2022/03/06 09:18:04;;;;;;;27.17;13.75;;;3.90;62.10;;;;;;5098990;28;20187;-86
2022/03/06 09:20:30;;;;;;;35.05;13.27;;;4.10;62.60;;;;;;5099294;28;20196;-85
2022/03/06 09:22:56;;;;;;;18.92;11.32;;;4.20;61.20;;;;;;5097798;28;20548;-86
2022/03/06 09:25:22;;;;;;;26.65;13.65;;;4.20;60.60;;;;;;5077267;28;20193;-85
2022/03/06 09:27:48;;;;;;;22.30;13.63;;;4.20;60.50;;;;;;5097029;28;20662;-87
2022/03/06 09:30:14;;;;;;;25.88;11.73;;;4.30;60.40;;;;;;5080933;28;20563;-85
2022/03/06 09:32:41;;;;;;;20.63;11.43;;;4.30;60.10;;;;;;5102903;28;20180;-85
2022/03/06 09:35:08;;;;;;;24.40;12.98;;;4.20;59.70;;;;;;5092451;28;20196;-85
2022/03/06 09:37:35;;;;;;;21.08;12.88;;;4.30;59.90;;;;;;5109066;28;20196;-84
2022/03/06 09:40:02;;;;;;;18.23;12.43;;;4.30;59.30;;;;;;5106703;28;20675;-86
2022/03/06 09:42:28;;;;;;;23.80;13.50;;;4.50;59.00;;;;;;5107059;28;20206;-82
2022/03/06 09:44:54;;;;;;;20.03;12.07;;;4.50;58.50;;;;;;5104726;28;20204;-84
2022/03/06 09:47:22;;;;;;;17.60;13.30;;;4.40;58.10;;;;;;5106656;28;20172;-82
2022/03/06 09:49:48;;;;;;;24.00;13.68;;;4.40;58.50;;;;;;5098679;28;20214;-82
2022/03/06 09:52:13;;;;;;;25.07;12.73;;;4.60;58.70;;;;;;5098117;28;20180;-82
2022/03/06 09:54:39;;;;;;;26.00;13.70;;;4.70;58.10;;;;;;5097333;28;20203;-83
2022/03/06 09:57:05;;;;;;;19.02;12.02;;;5.00;57.80;;;;;;5098818;28;20232;-83
2022/03/06 09:59:32;;;;;;;16.27;11.07;;;5.10;57.40;;;;;;5098027;28;20199;-83
2022/03/06 10:02:02;;;;;;;16.92;11.75;;;5.10;56.40;;;;;;5099145;28;20180;-83
2022/03/06 10:04:29;;;;;;;16.58;11.68;;;5.20;56.10;;;;;;5097577;28;20219;-82
2022/03/06 10:07:06;;;;;;;20.13;12.90;;;5.30;55.80;;;;;;5098075;28;20196;-85
2022/03/06 10:09:34;;;;;;;20.73;12.10;;;5.30;55.00;;;;;;5097675;28;20186;-87
2022/03/06 10:12:00;;;;;;;20.85;11.20;;;5.30;54.80;;;;;;5098160;28;20187;-86
2022/03/06 10:14:36;;;;;;;21.25;11.98;;;5.40;54.60;;;;;;5096758;28;20203;-83
2022/03/06 10:17:17;;;;;;;17.08;11.10;;;5.50;54.50;;;;;;5099516;28;20190;-84
2022/03/06 10:20:00;;;;;;;20.05;11.70;;;5.40;53.70;;;;;;5098392;28;20203;-82
2022/03/06 10:22:31;;;;;;;22.80;11.98;;;5.60;53.60;;;;;;5097844;28;20649;-85
2022/03/06 10:25:04;;;;;;;18.83;11.20;;;5.60;53.30;;;;;;5098762;28;20196;-84
2022/03/06 10:27:53;;;;;;;22.33;11.90;;;5.60;53.20;;;;;;5100377;28;20203;-83
2022/03/06 10:30:23;;;;;;;18.20;11.40;;;5.60;52.90;;;;;;5102987;28;20188;-84
2022/03/06 10:32:49;;;;;;;17.17;11.18;;;5.70;52.80;;;;;;5107522;28;20247;-88
2022/03/06 10:35:15;;;;;;;23.07;12.10;;;5.70;52.60;;;;;;5113356;28;20204;-83
2022/03/06 10:37:41;;;;;;;20.53;12.53;;;6.00;52.90;;;;;;5102278;28;20180;-83
2022/03/06 10:40:07;;;;;;;18.27;11.03;;;6.00;52.50;;;;;;5103649;28;20204;-86
2022/03/06 10:42:33;;;;;;;21.00;11.68;;;6.00;51.70;;;;;;5103326;28;20500;-84
2022/03/06 10:44:59;;;;;;;18.38;10.90;;;5.90;51.80;;;;;;5106352;28;20566;-84
2022/03/06 10:47:25;;;;;;;14.60;11.02;;;6.10;51.80;;;;;;5101003;28;20172;-84
2022/03/06 10:50:05;;;;;;;17.90;10.97;;;6.20;51.60;;;;;;5101108;28;20185;-84
2022/03/06 10:52:41;;;;;;;19.52;11.35;;;6.20;50.80;;;;;;5094257;28;20176;-83
2022/03/06 10:55:07;;;;;;;14.38;9.60;;;6.20;50.60;;;;;;5076021;28;20212;-84
2022/03/06 10:57:33;;;;;;;16.73;11.02;;;6.10;50.30;;;;;;5076776;28;20173;-84
2022/03/06 11:00:00;;;;;;;17.63;12.00;;;6.10;50.50;;;;;;5093252;28;20697;-84
2022/03/06 11:02:27;;;;;;;17.85;11.25;;;6.20;50.00;;;;;;5095867;28;20168;-83
2022/03/06 11:04:56;;;;;;;18.83;10.25;;;6.40;50.00;;;;;;5096870;28;20349;-83
2022/03/06 11:07:26;;;;;;;18.77;10.65;;;6.40;49.70;;;;;;5097378;28;20632;-83
2022/03/06 11:09:53;;;;;;;18.77;10.15;;;6.60;49.80;;;;;;5097371;28;20291;-84
2022/03/06 11:12:20;;;;;;;15.10;10.23;;;6.60;49.00;;;;;;5100160;28;20191;-82
2022/03/06 11:14:47;;;;;;;18.42;11.07;;;6.70;48.90;;;;;;5102511;28;20243;-82
2022/03/06 11:17:13;;;;;;;17.27;10.23;;;6.70;48.50;;;;;;5101588;28;20172;-81
2022/03/06 11:19:39;;;;;;;25.63;10.55;;;6.70;47.90;;;;;;5097666;28;20621;-82
2022/03/06 11:22:19;;;;;;;18.50;11.17;;;6.50;47.80;;;;;;5097752;28;20172;-83
2022/03/06 11:24:51;;;;;;;19.80;10.73;;;6.60;47.80;;;;;;5095443;28;20191;-83
2022/03/06 11:27:47;;;;;;;17.35;10.30;;;6.50;47.50;;;;;;5096753;28;20196;-83
2022/03/06 11:30:20;;;;;;;17.30;9.65;;;6.60;46.90;;;;;;5096325;28;20164;-83
2022/03/06 11:33:16;;;;;;;13.82;9.73;;;6.70;46.60;;;;;;5080014;28;20175;-83
2022/03/06 11:35:43;;;;;;;23.98;11.35;;;6.80;46.50;;;;;;5098248;28;20165;-83
2022/03/06 11:38:11;;;;;;;16.85;11.00;;;6.80;46.60;;;;;;5099050;28;20555;-83
2022/03/06 11:40:50;;;;;;;20.17;11.73;;;7.00;46.40;;;;;;5107761;28;20219;-83
2022/03/06 11:43:50;;;;;;;16.10;10.48;;;6.90;45.90;;;;;;5100257;28;20167;-83
2022/03/06 11:46:20;;;;;;;15.52;9.48;;;7.00;45.50;;;;;;5095482;28;20186;-83
2022/03/06 11:48:45;;;;;;;18.05;10.50;;;7.00;45.50;;;;;;5096098;28;20240;-83
2022/03/06 11:51:23;;;;;;;19.40;11.67;;;7.10;45.50;;;;;;5094595;28;20199;-83
2022/03/06 11:53:51;;;;;;;16.85;11.38;;;7.10;45.20;;;;;;5094259;28;20908;-83
2022/03/06 11:56:35;;;;;;;16.63;9.65;;;7.00;45.00;;;;;;5094877;28;20179;-83
2022/03/06 11:59:06;;;;;;;18.13;11.20;;;7.20;45.00;;;;;;5097131;28;20287;-82
2022/03/06 12:01:39;;;;;;;16.98;10.88;;;7.30;44.60;;;;;;5095311;28;20371;-83
2022/03/06 12:04:11;;;;;;;15.32;9.60;;;7.30;44.60;;;;;;5094913;28;20200;-83
2022/03/06 12:06:47;;;;;;;15.73;9.43;;;7.40;44.80;;;;;;5095464;28;20229;-83
2022/03/06 12:09:16;;;;;;;18.83;10.88;;;7.40;45.30;;;;;;5096432;28;20659;-83
2022/03/06 12:11:43;;;;;;;23.00;11.82;;;7.50;45.70;;;;;;5098794;28;20275;-83
2022/03/06 12:14:16;;;;;;;20.48;9.85;;;7.60;45.40;;;;;;5104808;28;20203;-84
2022/03/06 12:17:00;;;;;;;16.83;10.45;;;7.70;45.20;;;;;;5105137;28;20199;-83
2022/03/06 12:19:27;;;;;;;19.10;11.68;;;7.60;44.50;;;;;;5096913;28;20345;-83
2022/03/06 12:22:07;;;;;;;17.63;10.50;;;7.60;44.40;;;;;;5097667;28;20176;-83
2022/03/06 12:24:32;;;;;;;14.27;10.30;;;7.40;44.00;;;;;;5103284;28;20184;-88
2022/03/06 12:27:08;;;;;;;23.10;10.80;;;7.50;44.20;;;;;;5106550;28;20273;-83
2022/03/06 12:29:47;;;;;;;22.50;12.48;;;7.60;44.10;;;;;;5094696;28;20163;-84
2022/03/06 12:32:25;;;;;;;15.40;10.75;;;7.80;43.80;;;;;;5094400;28;20179;-83
2022/03/06 12:34:56;;;;;;;19.10;11.68;;;7.80;43.60;;;;;;5097643;28;20195;-84
2022/03/06 12:37:29;;;;;;;15.75;10.07;;;7.90;44.00;;;;;;5109153;28;20164;-83
2022/03/06 12:39:55;;;;;;;22.00;12.00;;;7.80;43.70;;;;;;5113591;28;20199;-85
2022/03/06 12:42:31;;;;;;;22.02;11.77;;;7.70;43.70;;;;;;5105928;28;20216;-84
2022/03/06 12:45:04;;;;;;;23.35;12.13;;;7.70;43.90;;;;;;5101742;28;20200;-83